Time;durP1;ratioP1;P1;durP2;ratioP2;P2;SDS_P1;SDS_P2;PMS_P1;PMS_P2;Temp;Humidity;BMP_temperature;BMP_pressure;BME280_temperature;BME280_humidity;BME280_pressure;Samples;Min_cycle;Max_cycle;Signal;HPM_P1;HPM_P2
2022/11/30 00:02:05;;;;;;;14.52;2.15;;;21.20;99.90;;;;;;5095729;28;20321;-76
2022/11/30 00:04:38;;;;;;;13.65;1.77;;;21.40;99.90;;;;;;5085735;28;20195;-76
2022/11/30 00:07:09;;;;;;;8.13;1.42;;;21.30;99.90;;;;;;5100863;28;20195;-76
2022/11/30 00:09:40;;;;;;;12.27;1.77;;;21.30;99.90;;;;;;5098111;28;20197;-78
2022/11/30 00:12:12;;;;;;;12.00;2.03;;;21.30;99.90;;;;;;5091007;28;20377;-76
2022/11/30 00:14:43;;;;;;;11.80;1.80;;;21.40;99.90;;;;;;5107604;28;20294;-76
2022/11/30 00:17:18;;;;;;;13.18;1.70;;;21.50;99.90;;;;;;5088489;28;20189;-76
2022/11/30 00:19:49;;;;;;;8.88;1.80;;;21.60;99.90;;;;;;5089329;28;20191;-76
2022/11/30 00:22:19;;;;;;;9.95;1.58;;;21.80;99.90;;;;;;5092965;28;20192;-76
2022/11/30 00:24:51;;;;;;;13.90;1.80;;;21.80;99.90;;;;;;5094839;28;20201;-76
2022/11/30 00:27:22;;;;;;;8.07;1.48;;;21.60;99.90;;;;;;5102488;28;20219;-75
2022/11/30 00:29:53;;;;;;;7.18;1.40;;;21.60;99.90;;;;;;5087924;28;20647;-76
2022/11/30 00:32:27;;;;;;;9.85;1.50;;;21.50;99.90;;;;;;5089547;28;20639;-76
2022/11/30 00:34:58;;;;;;;12.30;2.00;;;21.40;99.90;;;;;;5095153;28;20316;-75
2022/11/30 00:37:30;;;;;;;13.32;1.50;;;21.30;99.90;;;;;;5110370;28;20219;-74
2022/11/30 00:40:01;;;;;;;11.88;1.60;;;21.30;99.90;;;;;;5091562;28;20195;-77
2022/11/30 00:42:31;;;;;;;13.85;1.65;;;21.40;99.90;;;;;;5087803;28;20192;-74
2022/11/30 00:45:02;;;;;;;8.55;1.33;;;21.50;99.90;;;;;;5085495;28;20216;-76
2022/11/30 00:47:35;;;;;;;11.70;1.80;;;21.30;99.90;;;;;;5088218;28;20211;-76
2022/11/30 00:50:06;;;;;;;10.27;1.80;;;21.30;99.90;;;;;;5098191;28;20279;-76
2022/11/30 00:52:37;;;;;;;9.35;2.10;;;21.20;99.90;;;;;;5092477;28;20640;-76
2022/11/30 00:55:09;;;;;;;12.30;1.80;;;21.10;99.90;;;;;;5089969;28;20208;-76
2022/11/30 00:57:39;;;;;;;11.88;1.80;;;21.20;99.90;;;;;;5091931;28;20192;-77
2022/11/30 01:00:11;;;;;;;10.68;1.83;;;21.00;99.90;;;;;;5092620;28;20202;-78
2022/11/30 01:02:44;;;;;;;14.38;2.03;;;21.10;99.90;;;;;;5081246;28;20250;-77
2022/11/30 01:05:15;;;;;;;9.93;1.50;;;21.10;99.90;;;;;;5107020;28;20203;-77
2022/11/30 01:07:46;;;;;;;10.15;2.08;;;21.10;99.90;;;;;;5089697;28;20185;-77
2022/11/30 01:10:17;;;;;;;12.27;1.90;;;21.10;99.90;;;;;;5089210;28;20643;-77
2022/11/30 01:12:48;;;;;;;8.00;1.40;;;21.00;99.90;;;;;;5087093;28;20192;-80
2022/11/30 01:15:19;;;;;;;14.23;1.70;;;20.90;99.90;;;;;;5089554;28;20232;-77
2022/11/30 01:17:52;;;;;;;14.57;1.73;;;21.00;99.90;;;;;;5093425;28;20180;-78
2022/11/30 01:20:23;;;;;;;8.30;1.50;;;21.20;99.90;;;;;;5098760;28;20219;-77
2022/11/30 01:22:53;;;;;;;10.60;2.05;;;21.40;99.90;;;;;;5095101;28;20181;-78
2022/11/30 01:25:24;;;;;;;18.55;2.20;;;21.40;99.90;;;;;;5093271;28;20192;-79
2022/11/30 01:27:55;;;;;;;10.50;1.77;;;21.40;99.90;;;;;;5086427;28;20191;-77
2022/11/30 01:30:26;;;;;;;10.23;1.60;;;21.30;99.90;;;;;;5095793;28;20195;-77
2022/11/30 01:33:02;;;;;;;13.38;1.85;;;21.20;99.90;;;;;;5096837;28;20198;-78
2022/11/30 01:35:34;;;;;;;13.90;2.22;;;21.10;99.90;;;;;;5093981;28;20204;-78
2022/11/30 01:38:04;;;;;;;13.15;1.80;;;21.10;99.90;;;;;;5092394;28;20195;-79
2022/11/30 01:40:35;;;;;;;11.25;1.85;;;21.10;99.90;;;;;;5084067;28;20643;-78
2022/11/30 01:43:11;;;;;;;8.13;1.80;;;21.00;99.90;;;;;;5096565;28;20192;-77
2022/11/30 01:45:42;;;;;;;13.10;2.00;;;21.00;99.90;;;;;;5095827;28;20273;-78
2022/11/30 01:48:15;;;;;;;12.38;2.05;;;20.80;99.90;;;;;;5104600;28;20286;-79
2022/11/30 01:50:47;;;;;;;13.80;2.28;;;20.80;99.90;;;;;;5089863;28;20194;-76
2022/11/30 01:53:18;;;;;;;11.25;1.90;;;20.90;99.90;;;;;;5098999;28;20206;-77
2022/11/30 01:55:49;;;;;;;10.60;1.70;;;21.10;99.90;;;;;;5095855;28;20767;-77
2022/11/30 01:58:26;;;;;;;16.65;2.00;;;21.10;99.90;;;;;;5097912;28;20655;-76
2022/11/30 02:01:00;;;;;;;10.10;1.65;;;21.30;99.90;;;;;;5091531;28;21825;-76
2022/11/30 02:03:38;;;;;;;11.98;1.80;;;21.30;99.90;;;;;;5094434;28;20278;-77
2022/11/30 02:06:10;;;;;;;9.48;1.92;;;21.50;99.90;;;;;;5093016;28;20326;-77
2022/11/30 02:08:41;;;;;;;10.82;1.80;;;21.50;99.90;;;;;;5096272;28;20193;-78
2022/11/30 02:11:15;;;;;;;8.65;1.45;;;21.60;99.90;;;;;;5096964;28;20222;-76
2022/11/30 02:14:10;;;;;;;10.65;1.73;;;21.80;99.90;;;;;;5092088;28;20191;-77
2022/11/30 02:16:49;;;;;;;13.63;2.10;;;21.80;99.90;;;;;;5091762;28;20240;-76
2022/11/30 02:20:03;;;;;;;10.25;1.85;;;21.70;99.90;;;;;;5086954;28;20282;-75
2022/11/30 02:22:58;;;;;;;10.40;1.63;;;21.60;99.90;;;;;;5012469;28;20218;-75
2022/11/30 02:25:39;;;;;;;15.02;1.85;;;21.40;99.90;;;;;;5089880;28;20211;-77
2022/11/30 02:28:32;;;;;;;10.32;1.95;;;21.40;99.90;;;;;;5094321;28;20708;-76
2022/11/30 02:31:10;;;;;;;10.20;1.40;;;21.40;99.90;;;;;;5084800;28;20292;-76
2022/11/30 02:33:43;;;;;;;11.45;1.83;;;21.40;99.90;;;;;;5096535;28;20224;-76
2022/11/30 02:36:14;;;;;;;8.50;1.75;;;21.50;99.90;;;;;;5099563;28;20220;-75
2022/11/30 02:38:45;;;;;;;7.13;1.60;;;21.40;99.90;;;;;;5093109;28;20201;-75
2022/11/30 02:41:17;;;;;;;11.27;1.60;;;21.30;99.90;;;;;;5101322;28;20199;-76
2022/11/30 02:43:49;;;;;;;8.98;1.65;;;21.10;99.90;;;;;;5094244;28;20196;-74
2022/11/30 02:46:37;;;;;;;10.60;1.58;;;21.00;99.90;;;;;;5094476;28;20276;-77
2022/11/30 02:49:13;;;;;;;9.60;1.75;;;20.90;99.90;;;;;;5096414;28;20279;-77
2022/11/30 02:51:48;;;;;;;8.95;1.92;;;21.00;99.90;;;;;;5090627;28;20643;-76
2022/11/30 02:54:21;;;;;;;11.07;1.88;;;21.10;99.90;;;;;;5100167;28;20191;-75
2022/11/30 02:56:53;;;;;;;15.85;2.22;;;21.00;99.90;;;;;;5097211;28;20683;-76
2022/11/30 02:59:25;;;;;;;10.23;1.33;;;20.80;99.90;;;;;;5094882;28;20194;-76
2022/11/30 03:02:00;;;;;;;10.27;1.70;;;20.90;99.90;;;;;;5097520;28;20295;-75
2022/11/30 03:04:31;;;;;;;13.13;1.80;;;21.00;99.90;;;;;;5088062;28;20188;-80
2022/11/30 03:07:02;;;;;;;9.38;1.70;;;20.90;99.90;;;;;;5094605;28;20279;-78
2022/11/30 03:09:33;;;;;;;11.18;1.65;;;20.90;99.90;;;;;;5104144;28;20229;-79
2022/11/30 03:12:06;;;;;;;10.73;1.80;;;21.00;99.90;;;;;;5094759;28;20188;-77
2022/11/30 03:14:38;;;;;;;11.98;1.48;;;20.90;99.90;;;;;;5093721;28;20253;-75
2022/11/30 03:17:12;;;;;;;7.15;1.58;;;21.00;99.90;;;;;;5068483;28;20185;-77
2022/11/30 03:19:43;;;;;;;10.52;1.55;;;21.10;99.90;;;;;;5069102;28;20197;-77
2022/11/30 03:22:15;;;;;;;12.50;1.92;;;21.10;99.90;;;;;;5055972;28;20196;-74
2022/11/30 03:24:46;;;;;;;7.32;1.45;;;21.20;99.90;;;;;;5068232;28;20238;-78
2022/11/30 03:27:17;;;;;;;8.15;1.80;;;21.20;99.90;;;;;;5070612;28;20233;-74
2022/11/30 03:29:48;;;;;;;8.70;2.00;;;21.20;99.90;;;;;;5053290;28;20277;-74
2022/11/30 03:32:23;;;;;;;10.57;1.67;;;21.10;99.90;;;;;;5062352;28;20656;-72
2022/11/30 03:34:55;;;;;;;9.93;1.70;;;21.10;99.90;;;;;;5061740;28;20668;-73
2022/11/30 03:37:26;;;;;;;12.90;1.90;;;21.00;99.90;;;;;;5046275;28;20659;-74
2022/11/30 03:39:57;;;;;;;11.90;1.73;;;20.90;99.90;;;;;;5069226;28;20193;-74
2022/11/30 03:42:29;;;;;;;9.30;1.77;;;20.90;99.90;;;;;;5061557;28;20220;-74
2022/11/30 03:45:00;;;;;;;13.93;2.13;;;20.90;99.90;;;;;;5051657;28;20240;-74
2022/11/30 03:47:35;;;;;;;10.70;1.60;;;20.90;99.90;;;;;;5036323;28;20198;-77
2022/11/30 03:50:06;;;;;;;12.57;2.05;;;20.90;99.90;;;;;;5051512;28;20180;-74
2022/11/30 03:52:37;;;;;;;7.53;1.30;;;20.90;99.90;;;;;;5048177;28;20194;-73
2022/11/30 03:55:08;;;;;;;11.02;1.75;;;20.80;99.90;;;;;;5053571;28;20721;-75
2022/11/30 03:57:40;;;;;;;9.10;1.42;;;20.80;99.90;;;;;;5053587;28;20196;-74
2022/11/30 04:00:11;;;;;;;12.73;1.92;;;20.80;99.90;;;;;;5061135;28;20206;-73
2022/11/30 04:02:47;;;;;;;10.25;1.50;;;20.80;99.90;;;;;;5053388;28;20190;-74
2022/11/30 04:05:21;;;;;;;5.88;1.40;;;20.60;99.90;;;;;;5069622;28;20299;-74
2022/11/30 04:07:52;;;;;;;8.45;1.60;;;20.50;99.90;;;;;;5066868;28;20711;-75
2022/11/30 04:10:24;;;;;;;5.93;1.30;;;20.60;99.90;;;;;;5053325;28;20281;-75
2022/11/30 04:12:55;;;;;;;10.90;1.58;;;20.70;99.90;;;;;;5059186;28;20567;-74
2022/11/30 04:15:26;;;;;;;11.40;1.90;;;20.70;99.90;;;;;;5070284;28;20564;-75
2022/11/30 04:18:01;;;;;;;10.93;1.50;;;20.70;99.90;;;;;;5104674;28;20190;-76
2022/11/30 04:20:32;;;;;;;9.18;1.63;;;20.80;99.90;;;;;;5108236;28;20191;-75
2022/11/30 04:23:04;;;;;;;6.72;1.40;;;20.80;99.90;;;;;;5079145;28;20239;-74
2022/11/30 04:25:36;;;;;;;6.55;1.30;;;20.80;99.90;;;;;;5092747;28;20257;-76
2022/11/30 04:28:07;;;;;;;6.72;1.42;;;20.80;99.90;;;;;;5092042;28;20228;-76
2022/11/30 04:30:39;;;;;;;7.25;1.50;;;20.60;99.90;;;;;;5094652;28;20196;-75
2022/11/30 04:33:14;;;;;;;8.80;1.70;;;20.60;99.90;;;;;;5094371;28;20258;-76
2022/11/30 04:35:48;;;;;;;8.70;1.58;;;20.50;99.90;;;;;;5087867;28;20301;-75
2022/11/30 04:38:19;;;;;;;10.15;1.67;;;20.50;99.90;;;;;;5084744;28;20674;-76
2022/11/30 04:40:50;;;;;;;9.98;1.45;;;20.50;99.90;;;;;;5091828;28;20196;-76
2022/11/30 04:43:21;;;;;;;8.77;1.40;;;20.40;99.90;;;;;;5095607;28;20192;-76
2022/11/30 04:45:52;;;;;;;6.65;1.20;;;20.50;99.90;;;;;;5084928;28;20195;-75
2022/11/30 04:48:26;;;;;;;7.95;1.33;;;20.50;99.90;;;;;;5101299;28;20192;-76
2022/11/30 04:51:02;;;;;;;7.63;1.25;;;20.50;99.90;;;;;;5107285;28;20270;-77
2022/11/30 04:53:33;;;;;;;5.50;1.20;;;20.50;99.90;;;;;;5089340;28;20195;-78
2022/11/30 04:56:08;;;;;;;5.78;1.30;;;20.50;99.90;;;;;;5093572;28;20208;-78
2022/11/30 04:58:39;;;;;;;7.78;1.83;;;20.40;99.90;;;;;;5097224;28;20195;-74
2022/11/30 05:01:11;;;;;;;5.10;1.77;;;20.40;99.90;;;;;;5089880;28;20189;-75
2022/11/30 05:03:44;;;;;;;9.98;1.77;;;20.30;99.90;;;;;;5098074;28;20527;-75
2022/11/30 05:06:15;;;;;;;8.80;1.70;;;20.30;99.90;;;;;;5092872;28;20681;-74
2022/11/30 05:08:45;;;;;;;7.72;1.52;;;20.40;99.90;;;;;;5093040;28;20562;-75
2022/11/30 05:11:16;;;;;;;6.35;1.33;;;20.40;99.90;;;;;;5096118;28;20222;-76
2022/11/30 05:13:47;;;;;;;8.00;1.73;;;20.40;99.90;;;;;;5102876;28;20196;-74
2022/11/30 05:16:18;;;;;;;6.40;1.30;;;20.50;99.90;;;;;;5092889;28;20234;-74
2022/11/30 05:18:52;;;;;;;9.45;1.73;;;20.50;99.90;;;;;;5101435;28;20201;-74
2022/11/30 05:21:22;;;;;;;7.75;1.70;;;20.50;99.90;;;;;;5095416;28;20192;-76
2022/11/30 05:23:53;;;;;;;8.43;1.60;;;20.50;99.90;;;;;;5093858;28;20200;-78
2022/11/30 05:26:24;;;;;;;7.47;1.90;;;20.40;99.90;;;;;;5094225;28;20234;-77
2022/11/30 05:28:55;;;;;;;10.68;1.80;;;20.30;99.90;;;;;;5095136;28;20200;-76
2022/11/30 05:31:28;;;;;;;7.15;1.70;;;20.40;99.90;;;;;;5095523;28;20198;-74
2022/11/30 05:34:02;;;;;;;9.20;1.65;;;20.40;99.90;;;;;;5098069;28;20188;-77
2022/11/30 05:36:34;;;;;;;7.55;1.40;;;20.40;99.90;;;;;;5103673;28;20279;-76
2022/11/30 05:39:05;;;;;;;5.22;1.30;;;20.30;99.90;;;;;;5095786;28;20180;-76
2022/11/30 05:41:36;;;;;;;6.88;1.58;;;20.20;99.90;;;;;;5096090;28;20192;-76
2022/11/30 05:44:07;;;;;;;12.70;1.70;;;20.00;99.90;;;;;;5085707;28;20704;-77
2022/11/30 05:46:39;;;;;;;8.00;1.48;;;20.00;99.90;;;;;;5101028;28;20184;-77
2022/11/30 05:49:13;;;;;;;11.15;1.88;;;20.10;99.90;;;;;;5107945;28;20250;-76
2022/11/30 05:51:45;;;;;;;7.68;1.60;;;20.10;99.90;;;;;;5108628;28;20230;-76
2022/11/30 05:54:18;;;;;;;6.05;1.63;;;20.10;99.90;;;;;;5111367;28;20654;-74
2022/11/30 05:56:49;;;;;;;10.13;1.60;;;20.10;99.90;;;;;;5095738;28;20224;-77
2022/11/30 05:59:20;;;;;;;5.43;1.20;;;20.10;99.90;;;;;;5101333;28;20188;-76
2022/11/30 06:01:54;;;;;;;10.00;2.10;;;20.20;99.90;;;;;;5097394;28;20190;-76
2022/11/30 06:04:28;;;;;;;7.93;1.63;;;20.10;99.90;;;;;;5095892;28;20275;-76
2022/11/30 06:07:00;;;;;;;12.90;2.15;;;20.30;99.90;;;;;;5105398;28;20268;-76
2022/11/30 06:09:32;;;;;;;10.95;1.80;;;20.50;99.90;;;;;;5076739;28;20704;-76
2022/11/30 06:12:04;;;;;;;10.20;1.60;;;20.60;99.90;;;;;;5078263;28;20627;-76
2022/11/30 06:14:35;;;;;;;4.75;1.60;;;20.60;99.90;;;;;;5109836;28;20192;-77
2022/11/30 06:17:06;;;;;;;8.93;1.52;;;20.70;99.90;;;;;;5113589;28;20290;-76
2022/11/30 06:19:39;;;;;;;13.38;2.28;;;20.60;99.90;;;;;;5106393;28;20184;-78
2022/11/30 06:22:12;;;;;;;7.57;1.55;;;20.60;99.90;;;;;;5104965;28;20202;-77
2022/11/30 06:24:43;;;;;;;7.60;1.48;;;20.50;99.90;;;;;;5098652;28;20188;-77
2022/11/30 06:27:15;;;;;;;7.47;1.60;;;20.50;99.90;;;;;;5092597;28;20283;-76
2022/11/30 06:29:46;;;;;;;10.02;1.58;;;20.40;99.90;;;;;;5095199;28;20225;-76
2022/11/30 06:32:17;;;;;;;9.20;1.60;;;20.50;99.90;;;;;;5094621;28;20267;-77
2022/11/30 06:34:51;;;;;;;6.82;1.60;;;20.40;99.90;;;;;;5098841;28;20187;-76
2022/11/30 06:37:22;;;;;;;8.30;1.58;;;20.30;99.90;;;;;;5106769;28;20207;-76
2022/11/30 06:39:54;;;;;;;10.80;2.03;;;20.40;99.90;;;;;;5098344;28;20677;-76
2022/11/30 06:42:25;;;;;;;9.40;1.70;;;20.50;99.90;;;;;;5087150;28;20286;-75
2022/11/30 06:44:57;;;;;;;11.45;1.95;;;20.50;99.90;;;;;;5085072;28;20254;-77
2022/11/30 06:47:28;;;;;;;5.57;1.58;;;20.40;99.90;;;;;;5091396;28;20194;-76
2022/11/30 06:50:03;;;;;;;10.30;1.65;;;20.40;99.90;;;;;;5091592;28;20188;-77
2022/11/30 06:52:34;;;;;;;7.60;1.45;;;20.40;99.90;;;;;;5087895;28;20643;-76
2022/11/30 06:55:06;;;;;;;10.77;1.80;;;20.40;99.90;;;;;;5093508;28;20199;-76
2022/11/30 06:57:38;;;;;;;10.90;1.85;;;20.50;99.90;;;;;;5101582;28;20754;-76
2022/11/30 07:00:11;;;;;;;7.93;1.70;;;20.30;99.90;;;;;;5104733;28;20270;-77
2022/11/30 07:02:42;;;;;;;8.35;1.60;;;20.30;99.90;;;;;;5078256;28;20197;-76
2022/11/30 07:05:15;;;;;;;7.88;1.67;;;20.20;99.90;;;;;;5096098;28;20239;-75
2022/11/30 07:07:46;;;;;;;8.13;1.60;;;20.10;99.90;;;;;;5107984;28;20191;-77
2022/11/30 07:10:17;;;;;;;7.55;1.60;;;20.00;99.90;;;;;;5093326;28;20264;-78
2022/11/30 07:12:49;;;;;;;7.28;1.65;;;19.80;99.90;;;;;;5102321;28;20204;-77
2022/11/30 07:15:20;;;;;;;8.15;1.55;;;19.80;99.90;;;;;;5091674;28;20687;-78
2022/11/30 07:17:51;;;;;;;7.40;1.63;;;19.80;99.90;;;;;;5081452;28;20308;-77
2022/11/30 07:20:27;;;;;;;7.72;1.70;;;19.70;99.90;;;;;;5081875;28;20200;-77
2022/11/30 07:26:05;;;;;;;8.95;1.60;;;19.60;99.90;;;;;;5084115;28;20669;-76
2022/11/30 07:26:08;;;;;;;8.00;1.40;;;19.50;99.90;;;;;;5095266;28;20241;-76
2022/11/30 07:28:40;;;;;;;11.18;1.92;;;19.40;99.90;;;;;;5101120;28;20192;-75
2022/11/30 07:31:22;;;;;;;10.23;1.90;;;19.30;99.90;;;;;;5101107;28;20239;-76
2022/11/30 07:33:53;;;;;;;8.50;1.60;;;19.20;99.90;;;;;;5094873;28;20201;-76
2022/11/30 07:36:30;;;;;;;11.13;1.83;;;19.10;99.90;;;;;;5094169;28;20222;-75
2022/11/30 07:39:01;;;;;;;10.50;1.65;;;19.20;99.90;;;;;;5091465;28;20196;-75
2022/11/30 07:41:32;;;;;;;10.18;1.70;;;19.10;99.90;;;;;;5094212;28;20191;-76
2022/11/30 07:44:06;;;;;;;10.65;1.75;;;19.10;99.90;;;;;;5091811;28;20230;-77
2022/11/30 07:46:37;;;;;;;10.65;1.50;;;19.00;99.90;;;;;;5100280;28;20682;-75
2022/11/30 07:49:10;;;;;;;14.35;2.13;;;18.90;99.90;;;;;;5091565;28;20185;-78
2022/11/30 07:51:43;;;;;;;7.30;1.50;;;18.90;99.90;;;;;;5095324;28;20185;-77
2022/11/30 07:54:14;;;;;;;8.60;1.98;;;18.80;99.90;;;;;;5091253;28;20196;-76
2022/11/30 07:56:45;;;;;;;8.70;1.58;;;18.80;99.90;;;;;;5095072;28;20550;-75
2022/11/30 07:59:18;;;;;;;10.52;4.80;;;18.80;99.90;;;;;;5098030;28;20196;-76
2022/11/30 08:01:49;;;;;;;10.02;1.73;;;18.80;99.90;;;;;;5102854;28;20283;-75
2022/11/30 08:04:20;;;;;;;8.45;1.40;;;18.80;99.90;;;;;;5103463;28;20627;-77
2022/11/30 08:06:56;;;;;;;7.20;1.52;;;18.80;99.90;;;;;;5099453;28;20200;-76
2022/11/30 08:09:27;;;;;;;10.60;1.95;;;18.80;99.90;;;;;;5099940;28;20278;-75
2022/11/30 08:11:59;;;;;;;10.60;2.05;;;18.80;99.90;;;;;;5094277;28;20605;-75
2022/11/30 08:14:30;;;;;;;9.98;2.13;;;18.80;99.90;;;;;;5094113;28;20206;-75
2022/11/30 08:17:02;;;;;;;11.32;2.03;;;18.80;99.90;;;;;;5103658;28;20227;-76
2022/11/30 08:19:37;;;;;;;9.57;1.60;;;18.70;99.90;;;;;;5077347;28;20701;-76
2022/11/30 08:22:12;;;;;;;10.98;1.70;;;18.70;99.90;;;;;;5092733;28;20199;-75
2022/11/30 08:24:45;;;;;;;11.35;1.77;;;18.70;99.90;;;;;;5093287;28;20546;-76
2022/11/30 08:27:16;;;;;;;9.93;1.85;;;18.80;99.90;;;;;;5104254;28;20282;-75
2022/11/30 08:29:49;;;;;;;7.53;1.73;;;18.70;99.90;;;;;;5076135;28;20186;-75
2022/11/30 08:32:20;;;;;;;9.18;1.70;;;18.70;99.90;;;;;;5080602;28;20197;-75
2022/11/30 08:34:51;;;;;;;8.10;1.50;;;18.70;99.90;;;;;;5096455;28;20206;-76
2022/11/30 08:37:27;;;;;;;9.05;1.52;;;18.70;99.90;;;;;;5103665;28;20295;-76
2022/11/30 08:40:00;;;;;;;7.85;1.73;;;18.70;99.90;;;;;;5089328;28;20192;-75
2022/11/30 08:42:32;;;;;;;11.75;1.60;;;18.70;99.90;;;;;;5098709;28;20227;-76
2022/11/30 08:45:02;;;;;;;10.07;1.58;;;18.70;99.90;;;;;;5084481;28;20196;-76
2022/11/30 08:47:34;;;;;;;9.63;1.42;;;18.70;99.90;;;;;;5091703;28;20196;-76
2022/11/30 08:50:05;;;;;;;7.57;1.50;;;18.70;99.90;;;;;;5091415;28;20206;-76
2022/11/30 08:52:39;;;;;;;8.15;1.60;;;18.70;99.90;;;;;;5099116;28;20207;-76
2022/11/30 08:55:12;;;;;;;9.13;1.73;;;18.70;99.90;;;;;;5081230;28;20223;-76
2022/11/30 08:57:43;;;;;;;7.32;1.60;;;18.60;99.90;;;;;;5103799;28;20222;-76
2022/11/30 09:00:18;;;;;;;12.25;1.77;;;18.70;99.90;;;;;;5093871;28;20584;-77
2022/11/30 09:02:49;;;;;;;8.38;1.75;;;18.70;99.90;;;;;;5096716;28;20209;-77
2022/11/30 09:05:20;;;;;;;8.32;1.40;;;18.70;99.90;;;;;;5109282;28;20199;-76
2022/11/30 09:07:54;;;;;;;7.60;1.65;;;18.70;99.90;;;;;;5096929;28;20275;-76
2022/11/30 09:10:26;;;;;;;7.53;1.50;;;18.70;99.90;;;;;;5100384;28;20312;-76
2022/11/30 09:12:57;;;;;;;9.30;1.33;;;18.60;99.90;;;;;;5091705;28;20673;-76
2022/11/30 09:15:29;;;;;;;11.57;1.55;;;18.60;99.90;;;;;;5098934;28;20235;-77
2022/11/30 09:18:00;;;;;;;8.48;1.75;;;18.60;99.90;;;;;;5084274;28;21039;-76
2022/11/30 09:20:32;;;;;;;9.27;1.60;;;18.60;99.90;;;;;;5090834;28;20602;-76
2022/11/30 09:23:07;;;;;;;12.48;1.85;;;18.60;99.90;;;;;;5093445;28;20564;-76
2022/11/30 09:25:38;;;;;;;12.23;1.60;;;18.60;99.90;;;;;;5105607;28;20210;-76
2022/11/30 09:28:10;;;;;;;7.55;1.58;;;18.60;99.90;;;;;;5096057;28;20189;-77
2022/11/30 09:30:41;;;;;;;10.82;1.52;;;18.60;99.90;;;;;;5104969;28;20206;-77
2022/11/30 09:33:12;;;;;;;14.48;1.92;;;18.50;99.90;;;;;;5091786;28;20240;-77
2022/11/30 09:35:44;;;;;;;9.55;1.42;;;18.50;99.90;;;;;;5105387;28;20286;-78
2022/11/30 09:38:17;;;;;;;8.85;1.60;;;18.50;99.90;;;;;;5095379;28;20216;-77
2022/11/30 09:40:52;;;;;;;11.50;1.50;;;18.50;99.90;;;;;;5095812;28;20185;-77
2022/11/30 09:43:32;;;;;;;8.13;1.80;;;18.50;99.90;;;;;;5096230;28;20269;-77
2022/11/30 09:46:07;;;;;;;11.43;1.70;;;18.50;99.90;;;;;;5101964;28;20210;-76
2022/11/30 09:48:55;;;;;;;10.20;1.58;;;18.50;99.90;;;;;;5099970;28;20196;-78
2022/11/30 09:51:30;;;;;;;7.00;1.88;;;18.40;99.90;;;;;;5085736;28;20201;-76
2022/11/30 09:54:14;;;;;;;9.80;2.20;;;18.50;99.90;;;;;;5092872;28;20276;-78
2022/11/30 09:56:46;;;;;;;7.65;1.58;;;18.40;99.90;;;;;;5091422;28;20267;-78
2022/11/30 09:59:23;;;;;;;10.63;2.08;;;18.50;99.90;;;;;;5087485;28;20200;-77
2022/11/30 10:01:56;;;;;;;10.80;2.30;;;18.50;99.90;;;;;;5105246;28;20187;-77
2022/11/30 10:04:30;;;;;;;10.10;2.30;;;18.50;99.90;;;;;;5095569;28;20200;-77
2022/11/30 10:07:12;;;;;;;7.60;1.63;;;18.40;99.90;;;;;;5101864;28;20245;-77
2022/11/30 10:09:56;;;;;;;8.48;2.00;;;18.50;99.90;;;;;;5093845;28;20283;-76
2022/11/30 10:12:32;;;;;;;9.60;1.70;;;18.40;99.90;;;;;;5087463;28;20198;-76
2022/11/30 10:15:16;;;;;;;10.02;1.60;;;18.50;99.90;;;;;;5094104;28;20705;-77
2022/11/30 10:18:00;;;;;;;5.93;1.58;;;18.50;99.90;;;;;;5096100;28;20294;-76
2022/11/30 10:20:55;;;;;;;10.60;1.70;;;18.40;99.90;;;;;;5099342;28;20259;-77
2022/11/30 10:23:54;;;;;;;8.52;1.80;;;18.40;99.90;;;;;;5083460;28;20196;-76
2022/11/30 10:26:35;;;;;;;8.35;1.50;;;18.50;99.90;;;;;;5096278;28;20282;-76
2022/11/30 10:29:15;;;;;;;9.45;2.25;;;18.50;99.90;;;;;;5092785;28;20195;-77
2022/11/30 10:31:48;;;;;;;10.45;1.63;;;18.50;99.90;;;;;;5089721;28;20631;-76
2022/11/30 10:34:22;;;;;;;9.02;1.50;;;18.50;99.90;;;;;;5087339;28;20189;-76
2022/11/30 10:37:01;;;;;;;8.25;1.52;;;18.40;99.90;;;;;;5102540;28;20189;-76
2022/11/30 10:39:38;;;;;;;9.35;1.88;;;18.40;99.90;;;;;;5087160;28;20271;-76
2022/11/30 10:42:18;;;;;;;11.68;1.70;;;18.40;99.90;;;;;;5089841;28;20266;-76
2022/11/30 10:44:58;;;;;;;10.32;1.60;;;18.50;99.90;;;;;;5093399;28;20765;-77
2022/11/30 10:47:35;;;;;;;12.23;2.30;;;18.50;99.90;;;;;;5098859;28;20200;-78
2022/11/30 10:50:07;;;;;;;8.88;1.45;;;18.40;99.90;;;;;;5094614;28;20180;-77
2022/11/30 10:52:43;;;;;;;8.50;1.60;;;18.40;99.90;;;;;;5087718;28;20267;-76
2022/11/30 10:55:20;;;;;;;9.45;1.65;;;18.40;99.90;;;;;;5092670;28;20275;-77
2022/11/30 10:58:00;;;;;;;10.98;1.63;;;18.40;99.90;;;;;;5100487;28;20750;-77
2022/11/30 11:00:33;;;;;;;14.13;2.03;;;18.40;99.90;;;;;;5101634;28;20200;-78
2022/11/30 11:03:04;;;;;;;7.43;1.58;;;18.40;99.90;;;;;;5100523;28;20192;-76
2022/11/30 11:05:35;;;;;;;9.02;1.40;;;18.40;99.90;;;;;;5092241;28;20764;-77
2022/11/30 11:08:20;;;;;;;10.75;1.73;;;18.40;99.90;;;;;;5084927;28;20185;-77
2022/11/30 11:10:52;;;;;;;9.82;1.50;;;18.40;99.90;;;;;;5104975;28;20248;-76
2022/11/30 11:13:40;;;;;;;11.57;1.67;;;18.40;99.90;;;;;;5091718;28;20695;-78
2022/11/30 11:16:12;;;;;;;11.43;1.75;;;18.40;99.90;;;;;;5094508;28;20306;-77
2022/11/30 11:18:56;;;;;;;8.90;1.40;;;18.40;99.90;;;;;;5100988;28;20295;-76
2022/11/30 11:21:27;;;;;;;9.02;1.48;;;18.40;99.90;;;;;;5101383;28;20192;-76
2022/11/30 11:23:59;;;;;;;11.73;1.65;;;18.40;99.90;;;;;;5097727;28;20271;-76
2022/11/30 11:26:33;;;;;;;10.88;1.70;;;18.40;99.90;;;;;;5090757;28;20205;-77
2022/11/30 11:29:08;;;;;;;10.88;1.52;;;18.30;99.90;;;;;;5099885;28;20189;-76
2022/11/30 11:31:42;;;;;;;9.95;1.60;;;18.40;99.90;;;;;;5102779;28;20187;-76
2022/11/30 11:34:30;;;;;;;10.20;1.73;;;18.40;99.90;;;;;;5091698;28;20623;-77
2022/11/30 11:37:10;;;;;;;7.97;1.48;;;18.40;99.90;;;;;;5109808;28;20275;-76
2022/11/30 11:39:40;;;;;;;7.57;1.40;;;18.40;99.90;;;;;;5089717;28;20559;-77
2022/11/30 11:42:24;;;;;;;9.02;1.73;;;18.40;99.90;;;;;;5093049;28;20255;-76
2022/11/30 11:45:00;;;;;;;6.82;1.38;;;18.40;99.90;;;;;;5079755;28;20725;-78
2022/11/30 11:47:41;;;;;;;10.23;1.63;;;18.40;99.90;;;;;;5095626;28;20241;-77
2022/11/30 11:50:31;;;;;;;7.95;1.50;;;18.40;99.90;;;;;;5099820;28;20195;-77
2022/11/30 11:53:24;;;;;;;8.35;1.30;;;18.40;99.90;;;;;;5101152;28;20211;-76
2022/11/30 11:56:00;;;;;;;8.82;1.67;;;18.40;99.90;;;;;;5090555;28;20696;-77
2022/11/30 11:58:45;;;;;;;8.45;1.25;;;18.40;99.90;;;;;;5091557;28;20287;-76
2022/11/30 12:01:33;;;;;;;9.80;1.48;;;18.40;99.90;;;;;;5094810;28;20754;-76
2022/11/30 12:04:22;;;;;;;9.82;1.70;;;18.40;99.90;;;;;;5100090;28;20274;-77
2022/11/30 12:06:56;;;;;;;8.60;1.60;;;18.40;99.90;;;;;;5092053;28;20279;-77
2022/11/30 12:09:31;;;;;;;8.30;1.70;;;18.40;99.90;;;;;;5100343;28;20613;-77
2022/11/30 12:12:01;;;;;;;7.72;1.48;;;18.30;99.90;;;;;;5102596;28;20624;-77
2022/11/30 12:14:36;;;;;;;8.60;1.38;;;18.40;99.90;;;;;;5098501;28;20184;-77
2022/11/30 12:17:31;;;;;;;8.63;1.50;;;18.40;99.90;;;;;;5092047;28;20556;-76
2022/11/30 12:20:10;;;;;;;9.38;1.80;;;18.30;99.90;;;;;;5099715;28;20195;-78
2022/11/30 12:22:54;;;;;;;10.38;1.60;;;18.30;99.90;;;;;;5104412;28;20274;-77
2022/11/30 12:25:30;;;;;;;7.88;1.33;;;18.30;99.90;;;;;;5092412;28;20192;-77
2022/11/30 12:28:16;;;;;;;8.20;1.40;;;18.40;99.90;;;;;;5088643;28;20239;-76
2022/11/30 12:30:59;;;;;;;9.82;1.48;;;18.40;99.90;;;;;;5093691;28;20195;-76
2022/11/30 12:33:44;;;;;;;10.13;1.55;;;18.30;99.90;;;;;;5101864;28;20643;-77
2022/11/30 12:36:23;;;;;;;6.68;1.23;;;18.40;99.90;;;;;;5080114;28;20196;-77
2022/11/30 12:39:00;;;;;;;6.50;1.50;;;18.30;99.90;;;;;;5097777;28;20252;-76
2022/11/30 12:41:38;;;;;;;9.50;1.42;;;18.30;99.90;;;;;;5102705;28;20271;-77
2022/11/30 12:44:27;;;;;;;6.88;1.42;;;18.30;99.90;;;;;;5094144;28;20557;-76
2022/11/30 12:47:07;;;;;;;10.23;1.65;;;18.30;99.90;;;;;;5092291;28;20185;-76
2022/11/30 12:49:56;;;;;;;9.63;1.33;;;18.30;99.90;;;;;;5086159;28;20223;-76
2022/11/30 12:52:38;;;;;;;4.25;1.23;;;18.30;99.90;;;;;;5092082;28;20192;-76
2022/11/30 12:55:24;;;;;;;7.10;1.60;;;18.30;99.90;;;;;;5073789;28;20191;-76
2022/11/30 12:58:03;;;;;;;6.97;1.27;;;18.30;99.90;;;;;;5098781;28;20598;-77
2022/11/30 13:00:45;;;;;;;11.48;1.48;;;18.30;99.90;;;;;;5097814;28;20186;-76
2022/11/30 13:03:55;;;;;;;8.75;1.38;;;18.30;99.90;;;;;;5095427;28;20283;-76
2022/11/30 13:06:34;;;;;;;6.97;1.40;;;18.30;99.90;;;;;;5009581;28;20533;-76
2022/11/30 13:09:12;;;;;;;10.05;1.48;;;18.40;99.90;;;;;;5089283;28;20196;-77
2022/11/30 13:11:47;;;;;;;12.23;1.52;;;18.30;99.90;;;;;;5099705;28;20195;-77
2022/11/30 13:14:24;;;;;;;7.43;1.52;;;18.30;99.90;;;;;;5095130;28;20196;-77
2022/11/30 13:17:02;;;;;;;8.40;1.52;;;18.30;99.90;;;;;;5102880;28;20229;-76
2022/11/30 13:19:51;;;;;;;6.80;1.40;;;18.40;99.90;;;;;;5092391;28;20230;-76
2022/11/30 13:22:42;;;;;;;7.43;1.60;;;18.30;99.90;;;;;;5107665;28;20238;-76